Time;durP1;ratioP1;P1;durP2;ratioP2;P2;SDS_P1;SDS_P2;PMS_P1;PMS_P2;Temp;Humidity;BMP_temperature;BMP_pressure;BME280_temperature;BME280_humidity;BME280_pressure;Samples;Min_cycle;Max_cycle;Signal;HPM_P1;HPM_P2
2021/01/25 00:01:42;;;;;;;7.43;4.65;;;0.40;17.10;;;;;;4860423;29;20071;-70
2021/01/25 00:04:09;;;;;;;8.43;4.38;;;0.40;16.40;;;;;;4857507;29;20052;-70
2021/01/25 00:06:36;;;;;;;6.80;5.05;;;0.40;16.90;;;;;;4854401;29;20065;-69
2021/01/25 00:09:03;;;;;;;7.32;4.97;;;0.40;16.10;;;;;;4860721;29;20061;-69
2021/01/25 00:11:30;;;;;;;9.60;5.20;;;0.40;15.60;;;;;;4858948;29;20057;-70
2021/01/25 00:13:56;;;;;;;9.93;5.13;;;0.50;15.40;;;;;;4855547;29;20099;-70
2021/01/25 00:16:24;;;;;;;8.90;4.60;;;0.50;15.90;;;;;;4863877;29;20052;-70
2021/01/25 00:18:51;;;;;;;10.00;4.80;;;0.50;15.30;;;;;;4861913;29;20132;-70
2021/01/25 00:21:18;;;;;;;8.52;4.10;;;0.60;14.80;;;;;;4860938;29;20049;-70
2021/01/25 00:23:45;;;;;;;8.48;4.55;;;0.50;14.60;;;;;;4857194;29;20402;-70
2021/01/25 00:26:12;;;;;;;6.90;4.32;;;0.50;14.80;;;;;;4860611;29;20065;-70
2021/01/25 00:28:39;;;;;;;7.15;4.30;;;0.40;14.70;;;;;;4861034;29;20053;-70
2021/01/25 00:31:05;;;;;;;9.68;4.90;;;0.40;15.20;;;;;;4858904;29;20452;-70
2021/01/25 00:33:33;;;;;;;9.38;5.32;;;0.40;15.20;;;;;;4859264;29;20068;-69
2021/01/25 00:36:00;;;;;;;7.05;5.00;;;0.30;15.80;;;;;;4858826;29;20096;-69
2021/01/25 00:38:27;;;;;;;8.30;5.00;;;0.30;16.70;;;;;;4864372;29;20420;-70
2021/01/25 00:40:54;;;;;;;9.60;5.43;;;0.20;18.00;;;;;;4858655;29;20050;-72
2021/01/25 00:43:21;;;;;;;10.60;6.15;;;0.20;18.80;;;;;;4864052;29;20061;-70
2021/01/25 00:45:48;;;;;;;8.60;5.40;;;0.10;18.70;;;;;;4854485;29;20050;-70
2021/01/25 00:48:14;;;;;;;9.00;5.30;;;0.10;18.70;;;;;;4860748;29;20425;-70
2021/01/25 00:50:42;;;;;;;9.60;5.15;;;0.00;17.30;;;;;;4852062;29;20053;-70
2021/01/25 00:53:09;;;;;;;7.47;5.40;;;0.10;18.10;;;;;;4858770;29;20692;-70
2021/01/25 00:55:36;;;;;;;6.80;4.70;;;0.10;18.90;;;;;;4856020;29;20550;-70
2021/01/25 00:58:03;;;;;;;7.97;4.55;;;0.10;18.50;;;;;;4857740;29;20061;-71
2021/01/25 01:00:30;;;;;;;8.82;5.63;;;0.20;18.30;;;;;;4859139;29;20053;-74
2021/01/25 01:02:57;;;;;;;7.88;5.25;;;0.10;19.90;;;;;;4862190;29;20440;-74
2021/01/25 01:05:24;;;;;;;8.15;4.80;;;0.20;20.00;;;;;;4861401;29;20053;-69
2021/01/25 01:07:52;;;;;;;7.95;4.53;;;0.30;18.90;;;;;;4860367;29;20049;-70
2021/01/25 01:10:18;;;;;;;10.95;5.18;;;0.30;17.30;;;;;;4861204;29;20053;-70
2021/01/25 01:12:45;;;;;;;7.45;4.68;;;0.40;17.20;;;;;;4860077;29;20053;-69
2021/01/25 01:15:14;;;;;;;7.55;4.75;;;0.40;16.70;;;;;;4855301;29;20053;-69
2021/01/25 01:17:41;;;;;;;8.18;4.43;;;0.40;15.60;;;;;;4858726;29;20049;-69
2021/01/25 01:20:10;;;;;;;10.48;4.35;;;0.40;16.30;;;;;;4861465;29;20045;-69
2021/01/25 01:22:37;;;;;;;8.70;4.57;;;0.40;16.40;;;;;;4858676;29;20393;-70
2021/01/25 01:25:07;;;;;;;7.15;4.13;;;0.50;16.00;;;;;;4855005;29;20056;-69
2021/01/25 01:27:34;;;;;;;6.18;4.18;;;0.40;15.80;;;;;;4858178;29;20049;-70
2021/01/25 01:30:02;;;;;;;6.55;3.97;;;0.30;16.40;;;;;;4857238;29;20045;-71
2021/01/25 01:32:30;;;;;;;5.35;3.75;;;0.30;16.70;;;;;;4866331;29;20061;-70
2021/01/25 01:34:57;;;;;;;9.45;4.60;;;0.30;17.30;;;;;;4862856;29;20417;-70
2021/01/25 01:37:23;;;;;;;8.13;4.03;;;0.40;16.10;;;;;;4868555;29;20059;-69
2021/01/25 01:39:50;;;;;;;6.93;4.30;;;0.40;15.80;;;;;;4869724;29;20062;-71
2021/01/25 01:42:19;;;;;;;6.60;3.63;;;0.40;16.30;;;;;;4867214;29;20053;-71
2021/01/25 01:44:46;;;;;;;6.97;3.42;;;0.40;16.70;;;;;;4862943;29;20059;-73
2021/01/25 01:47:18;;;;;;;8.77;4.25;;;0.40;15.10;;;;;;4869470;29;20049;-71
2021/01/25 01:49:45;;;;;;;5.93;3.90;;;0.30;15.70;;;;;;4866303;29;20050;-71
2021/01/25 01:52:12;;;;;;;6.85;4.10;;;0.30;15.80;;;;;;4866170;29;20132;-71
2021/01/25 01:54:40;;;;;;;7.70;4.30;;;0.20;16.60;;;;;;4865767;29;20049;-70
2021/01/25 01:57:07;;;;;;;6.78;4.30;;;0.20;17.40;;;;;;4866888;29;20064;-72
2021/01/25 01:59:36;;;;;;;8.85;4.20;;;0.20;18.00;;;;;;4867747;29;20061;-71
2021/01/25 02:02:03;;;;;;;8.85;4.20;;;0.20;18.10;;;;;;4864946;29;20054;-71
2021/01/25 02:04:32;;;;;;;6.85;4.30;;;0.20;19.00;;;;;;4864057;29;20046;-71
2021/01/25 02:07:01;;;;;;;10.38;4.07;;;0.20;18.60;;;;;;4865269;29;20057;-70
2021/01/25 02:09:29;;;;;;;5.85;3.88;;;0.20;17.70;;;;;;4872091;29;20113;-72
2021/01/25 02:11:57;;;;;;;7.07;3.75;;;0.20;17.20;;;;;;4867131;29;20057;-71
2021/01/25 02:14:26;;;;;;;6.53;4.10;;;0.20;16.80;;;;;;4866700;29;20053;-72
2021/01/25 02:16:54;;;;;;;5.75;3.80;;;0.20;16.50;;;;;;4867673;29;20177;-70
2021/01/25 02:19:27;;;;;;;6.60;3.85;;;0.20;16.00;;;;;;4868806;29;20599;-71
2021/01/25 02:22:02;;;;;;;6.63;4.38;;;0.20;16.40;;;;;;4866116;29;20064;-72
2021/01/25 02:24:36;;;;;;;6.35;3.88;;;0.30;15.90;;;;;;4860398;29;20061;-71
2021/01/25 02:27:15;;;;;;;6.80;3.83;;;0.20;15.60;;;;;;4862042;29;20042;-71
2021/01/25 02:29:48;;;;;;;5.95;3.85;;;0.20;16.10;;;;;;4870340;29;20091;-71
2021/01/25 02:32:15;;;;;;;5.13;3.42;;;0.10;16.40;;;;;;4859670;29;20044;-71
2021/01/25 02:34:42;;;;;;;5.72;3.33;;;0.10;16.20;;;;;;4863350;29;20058;-71
2021/01/25 02:37:10;;;;;;;4.78;3.50;;;0.10;15.90;;;;;;4867257;29;20552;-71
2021/01/25 02:39:38;;;;;;;6.50;3.63;;;0.20;16.90;;;;;;4868309;29;20068;-70
2021/01/25 02:42:05;;;;;;;6.28;3.75;;;0.20;17.30;;;;;;4866966;29;20045;-72
2021/01/25 02:44:35;;;;;;;6.13;4.10;;;0.20;17.50;;;;;;4863204;29;20063;-71
2021/01/25 02:47:03;;;;;;;5.05;3.15;;;0.20;17.00;;;;;;4865262;29;20420;-71
2021/01/25 02:49:30;;;;;;;8.10;3.55;;;0.20;16.70;;;;;;4865413;29;20117;-70
2021/01/25 02:51:57;;;;;;;4.78;3.40;;;0.30;16.40;;;;;;4867245;29;20121;-72
2021/01/25 02:54:24;;;;;;;6.47;3.50;;;0.20;16.50;;;;;;4862893;29;20053;-71
2021/01/25 02:56:51;;;;;;;6.22;4.15;;;0.30;16.60;;;;;;4862943;29;20050;-69
2021/01/25 02:59:18;;;;;;;9.38;3.53;;;0.30;16.70;;;;;;4861446;29;20049;-70
2021/01/25 03:01:47;;;;;;;6.18;3.30;;;0.30;16.90;;;;;;4863611;29;20105;-70
2021/01/25 03:04:15;;;;;;;10.55;3.78;;;0.30;16.50;;;;;;4861045;29;20457;-71
2021/01/25 03:06:42;;;;;;;8.20;3.47;;;0.40;14.60;;;;;;4866064;29;20101;-70
2021/01/25 03:09:09;;;;;;;6.53;3.42;;;0.40;15.20;;;;;;4868006;29;20060;-71
2021/01/25 03:11:38;;;;;;;5.75;3.50;;;0.40;14.40;;;;;;4863847;29;20057;-72
2021/01/25 03:14:07;;;;;;;5.05;3.38;;;0.40;14.60;;;;;;4863968;29;20073;-71
2021/01/25 03:16:33;;;;;;;5.38;3.55;;;0.40;15.10;;;;;;4862569;29;20062;-72
2021/01/25 03:19:00;;;;;;;5.35;3.47;;;0.40;15.20;;;;;;4863712;29;20064;-70
2021/01/25 03:21:28;;;;;;;6.75;3.65;;;0.40;16.40;;;;;;4867390;29;20059;-71
2021/01/25 03:23:55;;;;;;;5.68;3.42;;;0.40;16.40;;;;;;4865022;29;20183;-72
2021/01/25 03:26:22;;;;;;;5.75;3.15;;;0.50;15.20;;;;;;4863719;29;20051;-71
2021/01/25 03:28:48;;;;;;;6.50;3.20;;;0.50;15.50;;;;;;4867470;29;20052;-72
2021/01/25 03:31:15;;;;;;;5.95;3.45;;;0.30;15.50;;;;;;4866357;29;20049;-71
2021/01/25 03:33:42;;;;;;;4.25;2.90;;;0.30;18.60;;;;;;4865279;29;20059;-70
2021/01/25 03:36:09;;;;;;;5.05;3.50;;;0.20;21.30;;;;;;4865062;29;20053;-71
2021/01/25 03:38:37;;;;;;;5.88;4.10;;;0.10;24.00;;;;;;4866425;29;20495;-71
2021/01/25 03:41:04;;;;;;;6.32;3.90;;;-0.10;26.50;;;;;;4865591;29;20053;-72
2021/01/25 03:43:30;;;;;;;7.13;4.18;;;-0.10;29.30;;;;;;4866040;29;20057;-71
2021/01/25 03:45:57;;;;;;;8.55;4.28;;;-0.20;31.70;;;;;;4863653;29;20056;-69
2021/01/25 03:48:24;;;;;;;7.20;4.30;;;-0.20;33.70;;;;;;4870677;29;20424;-70
2021/01/25 03:50:51;;;;;;;8.40;5.20;;;-0.30;36.60;;;;;;4867329;29;20080;-73
2021/01/25 03:53:18;;;;;;;7.07;4.90;;;-0.40;39.10;;;;;;4870919;29;20057;-70
2021/01/25 03:55:46;;;;;;;8.70;5.00;;;-0.30;41.90;;;;;;4865699;29;20052;-70
2021/01/25 03:58:13;;;;;;;9.02;5.03;;;-0.30;43.10;;;;;;4866230;29;20107;-70
2021/01/25 04:00:40;;;;;;;8.00;5.55;;;-0.40;44.80;;;;;;4869634;29;20067;-70
2021/01/25 04:03:07;;;;;;;9.52;5.88;;;-0.30;47.90;;;;;;4866927;29;20064;-71
2021/01/25 04:05:34;;;;;;;10.90;5.63;;;-0.30;48.40;;;;;;4863484;29;20052;-69
2021/01/25 04:08:01;;;;;;;10.27;5.70;;;-0.20;49.50;;;;;;4870475;29;20516;-70
2021/01/25 04:10:28;;;;;;;8.15;5.57;;;-0.40;49.30;;;;;;4869338;29;20089;-71
2021/01/25 04:12:55;;;;;;;9.68;5.55;;;-0.40;51.70;;;;;;4868377;29;20435;-69
2021/01/25 04:15:22;;;;;;;10.70;6.05;;;-0.40;52.30;;;;;;4864659;29;20046;-71
2021/01/25 04:17:50;;;;;;;9.15;5.75;;;-0.30;53.80;;;;;;4868914;29;20046;-70
2021/01/25 04:20:17;;;;;;;11.43;6.20;;;-0.30;54.40;;;;;;4863805;29;20783;-72
2021/01/25 04:22:43;;;;;;;9.57;6.38;;;-0.20;54.90;;;;;;4865537;29;20063;-70
2021/01/25 04:25:12;;;;;;;12.23;6.85;;;-0.30;55.00;;;;;;4863885;29;20045;-68
2021/01/25 04:27:38;;;;;;;11.15;6.38;;;-0.20;55.70;;;;;;4866377;29;20057;-68
2021/01/25 04:30:09;;;;;;;9.23;6.68;;;-0.20;56.10;;;;;;4864786;29;20419;-69
2021/01/25 04:32:37;;;;;;;14.20;7.97;;;-0.20;56.10;;;;;;4866331;29;20054;-70
2021/01/25 04:35:06;;;;;;;12.18;6.75;;;-0.30;56.60;;;;;;4862599;29;20049;-70
2021/01/25 04:37:34;;;;;;;11.02;7.35;;;-0.20;57.80;;;;;;4865512;29;20129;-70
2021/01/25 04:40:00;;;;;;;11.25;7.53;;;-0.20;57.80;;;;;;4862363;29;20050;-70
2021/01/25 04:42:29;;;;;;;10.00;7.13;;;-0.20;57.80;;;;;;4862348;29;20058;-70
2021/01/25 04:44:57;;;;;;;10.95;7.07;;;-0.20;58.70;;;;;;4861062;29;20514;-71
2021/01/25 04:47:26;;;;;;;10.30;6.70;;;-0.30;59.40;;;;;;4863110;29;20096;-70
2021/01/25 04:49:54;;;;;;;14.48;7.43;;;-0.40;59.40;;;;;;4861106;29;20056;-71
2021/01/25 04:52:21;;;;;;;9.75;7.07;;;-0.40;60.00;;;;;;4861722;29;20056;-71
2021/01/25 04:54:48;;;;;;;12.70;7.38;;;-0.40;60.60;;;;;;4857528;29;20523;-70
2021/01/25 04:57:16;;;;;;;13.00;6.97;;;-0.40;60.90;;;;;;4859812;29;20049;-70
2021/01/25 04:59:44;;;;;;;11.40;7.15;;;-0.40;61.00;;;;;;4863297;29;20512;-71
2021/01/25 05:02:11;;;;;;;11.13;6.63;;;-0.40;61.50;;;;;;4861555;29;20050;-71
2021/01/25 05:04:40;;;;;;;9.73;6.05;;;-0.40;61.50;;;;;;4858706;29;20053;-71
2021/01/25 05:07:08;;;;;;;9.18;6.32;;;-0.40;61.80;;;;;;4858784;29;20050;-68
2021/01/25 05:09:35;;;;;;;9.48;6.75;;;-0.30;62.30;;;;;;4863383;29;20058;-71
2021/01/25 05:12:03;;;;;;;10.38;5.78;;;-0.40;62.60;;;;;;4861256;29;20064;-70
2021/01/25 05:14:38;;;;;;;10.48;6.07;;;-0.40;62.70;;;;;;4858831;29;20057;-70
2021/01/25 05:17:05;;;;;;;;;;;-0.40;62.90;;;;;;4861940;29;20045;-70
2021/01/25 05:19:32;;;;;;;9.40;6.53;;;-0.40;64.10;;;;;;4860754;29;20710;-70
2021/01/25 05:22:00;;;;;;;9.35;6.38;;;-0.40;63.40;;;;;;4861002;29;20046;-70
2021/01/25 05:24:27;;;;;;;12.88;6.55;;;-0.30;63.50;;;;;;4859405;29;20054;-69
2021/01/25 05:26:56;;;;;;;11.32;6.32;;;-0.40;62.40;;;;;;4862368;29;20045;-69
2021/01/25 05:29:24;;;;;;;11.52;6.07;;;-0.40;63.40;;;;;;4862180;29;20053;-70
2021/01/25 05:31:51;;;;;;;9.07;5.40;;;-0.40;63.90;;;;;;4861052;29;20053;-69
2021/01/25 05:34:19;;;;;;;10.32;6.28;;;-0.40;63.80;;;;;;4857935;29;20054;-70
2021/01/25 05:36:46;;;;;;;13.25;6.53;;;-0.40;63.40;;;;;;4855255;29;20140;-71
2021/01/25 05:39:18;;;;;;;9.68;5.95;;;-0.50;63.90;;;;;;4861951;29;20057;-71
2021/01/25 05:41:54;;;;;;;10.82;6.18;;;-0.40;63.20;;;;;;4859752;29;20060;-71
2021/01/25 05:44:22;;;;;;;11.27;7.18;;;-0.40;63.50;;;;;;4858163;29;20053;-70
2021/01/25 05:46:49;;;;;;;10.38;6.97;;;-0.40;63.60;;;;;;4858887;29;20056;-70
2021/01/25 05:49:25;;;;;;;10.77;7.00;;;-0.40;63.40;;;;;;4860184;29;20083;-70
2021/01/25 05:51:53;;;;;;;11.43;7.10;;;-0.30;63.20;;;;;;4861598;29;20073;-70
2021/01/25 05:54:23;;;;;;;10.25;6.78;;;-0.30;62.50;;;;;;4856012;29;20049;-68
2021/01/25 05:56:49;;;;;;;13.98;7.07;;;-0.30;62.90;;;;;;4859912;29;20053;-70
2021/01/25 05:59:16;;;;;;;11.80;7.45;;;-0.40;62.30;;;;;;4861314;29;20053;-70
2021/01/25 06:01:43;;;;;;;14.27;7.40;;;-0.30;63.50;;;;;;4858310;29;20079;-70
2021/01/25 06:04:16;;;;;;;14.32;7.95;;;-0.30;63.50;;;;;;4860240;29;20109;-70
2021/01/25 06:06:54;;;;;;;15.52;8.60;;;-0.20;64.10;;;;;;4860877;29;20132;-71
2021/01/25 06:09:26;;;;;;;11.93;7.28;;;-0.20;63.90;;;;;;4859743;29;20050;-70
2021/01/25 06:12:02;;;;;;;15.60;8.05;;;-0.20;64.10;;;;;;4858238;29;20069;-70
2021/01/25 06:14:37;;;;;;;20.13;8.35;;;-0.20;63.90;;;;;;4859517;29;20049;-69
2021/01/25 06:17:06;;;;;;;14.95;7.63;;;-0.20;63.60;;;;;;4864158;29;20051;-70
2021/01/25 06:19:34;;;;;;;14.38;7.95;;;-0.20;63.30;;;;;;4858099;29;20050;-70
2021/01/25 06:22:01;;;;;;;16.13;8.68;;;-0.10;64.10;;;;;;4863186;29;20045;-69
2021/01/25 06:24:30;;;;;;;16.20;8.93;;;-0.20;63.30;;;;;;4854085;29;20053;-70
2021/01/25 06:26:56;;;;;;;18.17;9.35;;;-0.10;64.20;;;;;;4860166;29;20427;-70
2021/01/25 06:29:26;;;;;;;20.30;9.85;;;-0.10;64.10;;;;;;4856223;29;20132;-70
2021/01/25 06:32:00;;;;;;;14.10;9.15;;;-0.10;64.70;;;;;;5104390;27;20355;-69
2021/01/25 06:34:28;;;;;;;16.38;9.60;;;-0.10;63.90;;;;;;5103283;28;20055;-71
2021/01/25 06:36:55;;;;;;;14.18;9.13;;;-0.10;63.80;;;;;;5108234;28;20082;-70
2021/01/25 06:39:26;;;;;;;22.60;10.30;;;-0.10;64.10;;;;;;5104892;28;20051;-70
2021/01/25 06:42:01;;;;;;;16.20;9.98;;;0.00;64.20;;;;;;5104533;28;20055;-71
2021/01/25 06:44:29;;;;;;;16.08;9.52;;;0.00;64.40;;;;;;5101979;28;20050;-69
2021/01/25 06:46:58;;;;;;;15.00;9.52;;;0.00;63.20;;;;;;5105364;28;20462;-69
2021/01/25 06:49:26;;;;;;;14.93;10.35;;;-0.10;62.60;;;;;;5109174;28;20082;-70
2021/01/25 06:51:55;;;;;;;15.70;10.20;;;-0.10;63.60;;;;;;5105817;28;20039;-70
2021/01/25 06:54:24;;;;;;;21.50;10.70;;;-0.10;63.30;;;;;;5103431;28;20070;-71
2021/01/25 06:56:53;;;;;;;19.15;11.25;;;-0.10;63.60;;;;;;5109369;28;20537;-71
2021/01/25 06:59:21;;;;;;;17.33;9.98;;;0.00;63.90;;;;;;5109217;28;20513;-70
2021/01/25 07:01:52;;;;;;;19.85;11.90;;;-0.10;63.10;;;;;;5106127;28;20406;-70
2021/01/25 07:04:20;;;;;;;22.00;11.07;;;-0.10;63.70;;;;;;5102703;28;20052;-69
2021/01/25 07:06:49;;;;;;;18.98;10.90;;;-0.10;63.30;;;;;;5111916;28;20044;-69
2021/01/25 07:09:26;;;;;;;20.25;12.15;;;-0.10;63.80;;;;;;5108304;28;20403;-70
2021/01/25 07:11:55;;;;;;;19.27;11.32;;;-0.10;63.30;;;;;;5107389;28;20055;-70
2021/01/25 07:14:25;;;;;;;20.80;11.55;;;-0.10;63.40;;;;;;5105863;28;20709;-69
2021/01/25 07:16:53;;;;;;;18.17;10.50;;;-0.10;64.00;;;;;;5107411;28;20054;-71
2021/01/25 07:19:21;;;;;;;19.08;12.15;;;-0.20;63.70;;;;;;5110545;28;20123;-70
2021/01/25 07:21:49;;;;;;;18.45;11.30;;;-0.10;64.20;;;;;;5107737;28;20036;-69
2021/01/25 07:24:20;;;;;;;24.38;12.77;;;0.00;63.60;;;;;;5103346;28;20044;-69
2021/01/25 07:26:50;;;;;;;23.95;12.90;;;0.00;64.40;;;;;;5106583;28;20138;-71
2021/01/25 07:29:18;;;;;;;22.20;12.05;;;0.10;63.20;;;;;;5109168;28;20131;-71
2021/01/25 07:31:44;;;;;;;22.40;12.88;;;0.20;63.50;;;;;;5107490;28;20043;-69
2021/01/25 07:34:12;;;;;;;26.42;13.23;;;0.20;62.30;;;;;;5107246;28;20044;-71
2021/01/25 07:36:39;;;;;;;22.88;12.52;;;0.20;62.00;;;;;;5108951;28;20778;-70
2021/01/25 07:39:08;;;;;;;25.75;13.57;;;0.40;63.10;;;;;;5109051;28;20061;-71
2021/01/25 07:41:36;;;;;;;23.52;13.15;;;0.30;58.80;;;;;;5105597;28;20047;-71
2021/01/25 07:44:03;;;;;;;25.10;13.68;;;0.20;60.20;;;;;;5091123;28;20055;-69
2021/01/25 07:46:31;;;;;;;24.13;13.40;;;0.20;59.20;;;;;;5093800;28;20056;-69
2021/01/25 07:48:58;;;;;;;22.08;13.27;;;0.30;61.30;;;;;;5095066;28;20052;-70
2021/01/25 07:51:26;;;;;;;30.90;14.57;;;0.40;60.90;;;;;;5090677;28;20051;-71
2021/01/25 07:53:54;;;;;;;27.27;14.25;;;0.30;60.20;;;;;;5086798;28;20059;-70
2021/01/25 07:56:24;;;;;;;21.83;12.32;;;0.50;59.70;;;;;;5088959;28;20048;-71
2021/01/25 07:59:04;;;;;;;23.13;13.75;;;0.40;60.20;;;;;;5091150;28;20066;-71
2021/01/25 08:01:38;;;;;;;23.73;12.98;;;0.50;61.20;;;;;;5088246;28;20040;-71
2021/01/25 08:04:06;;;;;;;20.88;12.90;;;0.60;60.20;;;;;;5085771;28;20690;-69
2021/01/25 08:06:35;;;;;;;27.05;13.82;;;0.60;60.00;;;;;;5088904;28;20052;-71
2021/01/25 08:09:04;;;;;;;20.70;12.57;;;0.70;59.50;;;;;;5087371;28;20075;-71
2021/01/25 08:11:35;;;;;;;21.20;12.57;;;0.60;59.50;;;;;;5088865;28;20061;-71
2021/01/25 08:14:11;;;;;;;26.52;13.30;;;0.70;58.50;;;;;;5089054;28;20058;-70
2021/01/25 08:16:41;;;;;;;22.90;13.45;;;0.70;59.00;;;;;;5085837;28;20048;-71
2021/01/25 08:19:12;;;;;;;25.90;13.02;;;0.70;58.50;;;;;;5088468;28;20063;-71
2021/01/25 08:21:45;;;;;;;25.38;13.40;;;0.70;58.70;;;;;;5086592;28;20056;-71
2021/01/25 08:24:12;;;;;;;21.50;12.90;;;0.70;58.50;;;;;;5089978;28;20053;-71
2021/01/25 08:26:40;;;;;;;26.25;14.43;;;0.60;57.60;;;;;;5087369;28;20143;-71
2021/01/25 08:29:15;;;;;;;21.90;13.18;;;0.70;61.10;;;;;;5095693;28;20116;-72
2021/01/25 08:31:44;;;;;;;22.90;13.65;;;0.80;60.40;;;;;;5095630;28;20064;-70
2021/01/25 08:34:25;;;;;;;21.52;12.70;;;0.80;60.10;;;;;;5100660;28;20044;-71
2021/01/25 08:37:00;;;;;;;25.33;13.77;;;0.80;61.10;;;;;;5092471;28;20040;-71
2021/01/25 08:39:34;;;;;;;22.60;13.15;;;0.80;61.30;;;;;;5095243;28;20047;-73
2021/01/25 08:42:03;;;;;;;22.50;13.55;;;0.80;60.70;;;;;;5095444;28;20051;-71
2021/01/25 08:44:31;;;;;;;21.98;14.07;;;0.70;59.50;;;;;;5093303;28;20044;-72
2021/01/25 08:47:07;;;;;;;21.15;13.32;;;0.80;62.50;;;;;;5088441;28;20067;-71
2021/01/25 08:49:37;;;;;;;25.52;13.75;;;0.90;61.60;;;;;;5093600;28;20136;-72
2021/01/25 08:52:05;;;;;;;29.13;18.02;;;0.90;60.50;;;;;;5094859;28;20042;-72
2021/01/25 08:54:35;;;;;;;23.80;13.90;;;1.00;60.60;;;;;;5097407;28;20048;-71
2021/01/25 08:57:13;;;;;;;22.38;12.88;;;1.10;60.40;;;;;;5095107;28;20127;-69
2021/01/25 08:59:43;;;;;;;25.00;13.07;;;1.10;59.10;;;;;;5091018;28;20044;-72
2021/01/25 09:02:13;;;;;;;20.92;12.68;;;1.10;55.90;;;;;;5090716;28;20127;-71
2021/01/25 09:04:41;;;;;;;21.83;13.43;;;1.20;58.40;;;;;;5087849;28;20055;-71
2021/01/25 09:07:16;;;;;;;21.83;12.88;;;1.30;58.50;;;;;;5091070;28;20071;-71
2021/01/25 09:09:42;;;;;;;;;;;1.40;58.60;;;;;;5090649;28;20127;-72
2021/01/25 09:12:10;;;;;;;22.00;13.05;;;1.50;56.60;;;;;;5087787;28;19921;-73
2021/01/25 09:14:37;;;;;;;22.77;13.38;;;1.50;55.00;;;;;;5087985;28;20052;-71
2021/01/25 09:17:07;;;;;;;22.42;12.40;;;1.40;55.50;;;;;;5086278;28;20040;-72
2021/01/25 09:19:34;;;;;;;22.30;13.00;;;1.60;54.60;;;;;;5090604;28;20068;-72
2021/01/25 09:22:00;;;;;;;20.42;12.07;;;1.60;55.40;;;;;;5087075;28;20048;-72
2021/01/25 09:24:27;;;;;;;20.77;12.55;;;1.70;55.00;;;;;;5088425;28;20052;-72
2021/01/25 09:26:54;;;;;;;21.42;12.32;;;1.70;50.40;;;;;;5085317;28;20051;-72
2021/01/25 09:29:21;;;;;;;22.42;12.82;;;1.80;53.10;;;;;;5088722;28;20051;-73
2021/01/25 09:31:48;;;;;;;20.52;12.95;;;1.60;51.50;;;;;;5086168;28;20043;-72
2021/01/25 09:34:15;;;;;;;22.35;12.23;;;1.70;54.00;;;;;;5087839;28;20048;-72
2021/01/25 09:36:42;;;;;;;22.77;12.05;;;1.70;53.20;;;;;;5083651;28;20048;-72
2021/01/25 09:39:10;;;;;;;20.88;12.93;;;1.50;54.80;;;;;;5086728;28;20055;-71
2021/01/25 09:41:38;;;;;;;20.30;13.65;;;1.50;54.50;;;;;;5086360;28;20049;-72
2021/01/25 09:44:06;;;;;;;25.38;14.88;;;1.50;56.00;;;;;;5085291;28;20385;-72
2021/01/25 09:46:32;;;;;;;28.30;15.02;;;1.40;56.50;;;;;;5080522;28;20044;-72
2021/01/25 09:48:59;;;;;;;23.77;13.80;;;1.50;58.10;;;;;;5089177;28;20470;-74
2021/01/25 09:51:27;;;;;;;25.65;14.50;;;1.40;59.00;;;;;;5084345;28;20054;-72
2021/01/25 09:53:54;;;;;;;27.77;18.25;;;1.40;60.40;;;;;;5088016;28;20391;-72
2021/01/25 09:56:21;;;;;;;23.33;14.27;;;1.40;59.90;;;;;;5081526;28;20383;-71
2021/01/25 09:58:47;;;;;;;22.85;14.25;;;1.40;60.10;;;;;;5087294;28;20134;-72
2021/01/25 10:01:14;;;;;;;28.08;15.07;;;1.50;59.10;;;;;;5084919;28;20040;-71
2021/01/25 10:03:41;;;;;;;20.23;13.52;;;1.50;60.20;;;;;;5087045;28;20044;-73
2021/01/25 10:06:08;;;;;;;21.38;12.20;;;1.60;59.20;;;;;;5082539;28;20056;-71
2021/01/25 10:08:36;;;;;;;20.80;11.95;;;1.80;59.40;;;;;;5086799;28;20048;-72
2021/01/25 10:11:04;;;;;;;18.35;12.98;;;1.80;58.50;;;;;;5086547;28;20048;-73
2021/01/25 10:13:31;;;;;;;19.65;12.30;;;1.90;55.80;;;;;;5087592;28;20397;-72
2021/01/25 10:15:58;;;;;;;16.27;10.75;;;1.90;55.10;;;;;;5081314;28;20048;-72
2021/01/25 10:18:25;;;;;;;16.73;10.32;;;1.80;54.50;;;;;;5086862;28;20068;-73
2021/01/25 10:20:52;;;;;;;15.52;10.10;;;2.00;56.00;;;;;;5086425;28;20044;-73
2021/01/25 10:23:20;;;;;;;15.45;10.55;;;2.10;55.10;;;;;;5088011;28;20048;-72
2021/01/25 10:25:48;;;;;;;17.20;11.30;;;2.10;53.80;;;;;;5080379;28;20050;-72
2021/01/25 10:28:15;;;;;;;19.35;10.93;;;2.10;53.50;;;;;;5086837;28;20055;-73
2021/01/25 10:30:42;;;;;;;18.67;10.77;;;2.20;53.60;;;;;;5086853;28;20048;-73
2021/01/25 10:33:09;;;;;;;18.73;9.00;;;2.20;53.40;;;;;;5087237;28;20690;-72
2021/01/25 10:35:36;;;;;;;14.75;8.90;;;2.20;53.20;;;;;;5082920;28;20048;-71
2021/01/25 10:38:04;;;;;;;13.90;8.45;;;2.20;52.00;;;;;;5086981;28;20063;-72
2021/01/25 10:40:31;;;;;;;12.27;8.02;;;2.20;53.10;;;;;;5084494;28;20066;-72
2021/01/25 10:42:59;;;;;;;13.95;7.45;;;2.30;53.90;;;;;;5087884;28;20063;-71
2021/01/25 10:45:25;;;;;;;14.75;8.27;;;2.60;52.20;;;;;;5082144;28;20071;-71
2021/01/25 10:47:52;;;;;;;12.32;7.68;;;2.60;48.70;;;;;;5086354;28;20052;-72
2021/01/25 10:50:21;;;;;;;9.38;6.68;;;2.70;47.00;;;;;;5086637;28;20048;-72
2021/01/25 10:52:49;;;;;;;14.65;6.43;;;2.90;48.60;;;;;;5089669;28;20040;-72
2021/01/25 10:55:16;;;;;;;11.25;6.80;;;2.60;45.20;;;;;;5083435;28;20421;-71
2021/01/25 10:57:43;;;;;;;10.98;6.50;;;2.60;48.00;;;;;;5087319;28;20063;-70
2021/01/25 11:00:15;;;;;;;10.55;6.57;;;2.50;49.30;;;;;;5084318;28;20044;-72
2021/01/25 11:02:42;;;;;;;9.50;5.78;;;2.40;49.40;;;;;;5086217;28;20047;-71
2021/01/25 11:05:11;;;;;;;9.55;5.55;;;2.30;52.00;;;;;;5082428;28;20090;-72
2021/01/25 11:07:38;;;;;;;9.45;5.80;;;2.40;51.10;;;;;;5084318;28;20056;-72
2021/01/25 11:10:08;;;;;;;11.05;6.15;;;2.30;50.90;;;;;;5085286;28;20045;-71
2021/01/25 11:12:35;;;;;;;12.23;5.85;;;2.30;49.00;;;;;;5084469;28;20051;-72
2021/01/25 11:15:01;;;;;;;8.07;5.45;;;2.40;50.70;;;;;;5084134;28;20048;-72
2021/01/25 11:17:29;;;;;;;8.07;5.10;;;2.50;50.30;;;;;;5089635;28;20052;-73
2021/01/25 11:19:56;;;;;;;7.65;4.93;;;2.40;47.50;;;;;;5089874;28;20055;-74
2021/01/25 11:22:23;;;;;;;6.47;4.57;;;2.30;51.20;;;;;;5087756;28;20048;-73
2021/01/25 11:24:50;;;;;;;10.02;4.88;;;2.20;51.30;;;;;;5088411;28;20054;-73
2021/01/25 11:27:17;;;;;;;7.15;3.50;;;2.50;53.60;;;;;;5090674;28;20040;-72
2021/01/25 11:29:45;;;;;;;5.20;3.40;;;2.40;48.90;;;;;;5090127;28;20056;-72
2021/01/25 11:32:12;;;;;;;4.53;2.85;;;2.60;50.80;;;;;;5088156;28;20066;-73
2021/01/25 11:34:40;;;;;;;3.95;2.90;;;2.70;48.50;;;;;;5087420;28;20051;-71
2021/01/25 11:37:07;;;;;;;3.58;2.13;;;2.80;48.10;;;;;;5087332;28;20040;-72
2021/01/25 11:39:34;;;;;;;6.22;2.38;;;2.70;47.80;;;;;;5091726;28;20044;-72
2021/01/25 11:42:01;;;;;;;2.55;1.80;;;2.60;45.90;;;;;;5088380;28;20044;-73
2021/01/25 11:44:28;;;;;;;2.85;1.75;;;2.40;48.60;;;;;;5087829;28;20437;-72
2021/01/25 11:46:55;;;;;;;5.45;1.73;;;2.50;51.40;;;;;;5085866;28;20044;-72
2021/01/25 11:49:23;;;;;;;6.82;2.45;;;2.70;49.60;;;;;;5091447;28;20093;-71
2021/01/25 11:51:50;;;;;;;2.67;2.00;;;2.70;48.60;;;;;;5088346;28;20052;-70
2021/01/25 11:54:18;;;;;;;3.90;1.98;;;2.70;49.00;;;;;;5090793;28;20399;-72
2021/01/25 11:56:46;;;;;;;2.40;2.13;;;2.60;50.10;;;;;;5084178;28;20130;-72
2021/01/25 11:59:13;;;;;;;4.15;2.15;;;2.60;48.80;;;;;;5089504;28;20071;-71
2021/01/25 12:01:40;;;;;;;1.60;1.33;;;2.40;50.90;;;;;;5087742;28;20048;-72
2021/01/25 12:04:07;;;;;;;2.67;1.83;;;2.30;48.90;;;;;;5089684;28;20535;-72
2021/01/25 12:06:34;;;;;;;2.95;2.05;;;2.30;48.50;;;;;;5085349;28;20059;-71
2021/01/25 12:09:02;;;;;;;3.17;1.83;;;2.40;49.30;;;;;;5087099;28;20040;-75
2021/01/25 12:11:29;;;;;;;5.22;2.22;;;2.70;49.20;;;;;;5086513;28;20436;-71
2021/01/25 12:13:57;;;;;;;3.80;2.10;;;3.00;47.00;;;;;;5087395;28;20050;-73
2021/01/25 12:16:24;;;;;;;2.65;1.73;;;2.90;45.20;;;;;;5083620;28;20064;-72
2021/01/25 12:18:51;;;;;;;3.45;1.98;;;3.00;42.90;;;;;;5087206;28;20054;-73
2021/01/25 12:21:18;;;;;;;2.85;2.17;;;3.30;40.80;;;;;;5087933;28;20043;-73
2021/01/25 12:23:45;;;;;;;2.50;1.90;;;3.50;43.80;;;;;;5089111;28;20047;-73
2021/01/25 12:26:12;;;;;;;1.85;1.58;;;3.60;40.60;;;;;;5083583;28;20068;-72
2021/01/25 12:28:39;;;;;;;2.10;1.30;;;3.00;36.40;;;;;;5088441;28;20544;-73
2021/01/25 12:31:07;;;;;;;2.53;1.92;;;3.10;40.70;;;;;;5086051;28;20070;-74
2021/01/25 12:33:34;;;;;;;2.60;1.50;;;3.40;41.00;;;;;;5089825;28;20051;-73
2021/01/25 12:36:01;;;;;;;2.63;2.42;;;3.30;41.30;;;;;;5082734;28;20090;-71
2021/01/25 12:38:28;;;;;;;3.22;1.67;;;3.20;41.00;;;;;;5087569;28;20172;-73
2021/01/25 12:40:55;;;;;;;2.92;1.60;;;3.10;42.10;;;;;;5086114;28;20044;-72
2021/01/25 12:43:23;;;;;;;2.83;1.42;;;3.10;38.00;;;;;;5089365;28;20052;-72
2021/01/25 12:45:50;;;;;;;1.50;1.20;;;3.10;38.30;;;;;;5084053;28;20052;-72
2021/01/25 12:48:17;;;;;;;1.55;1.10;;;3.50;39.00;;;;;;5088770;28;20411;-71
2021/01/25 12:50:44;;;;;;;2.25;1.60;;;3.50;37.50;;;;;;5086354;28;20048;-71